Terminal Aerodrome Forecast
Issued by NWS Mt. Holly, NJ

Home | Current Version | Previous Version | Text Only | Print | Product List | Glossary On
Versions: 1 2 3 4 5 6 7 8 9 10 11 12 13 14 15 16 17 18
000
FTUS41 KPHI 010500
TAFTTN
TAF
KTTN 010520Z 0106/0206 26004KT P6SM SCT035
     FM010800 25005KT P6SM BKN035
     FM011800 26005KT P6SM OVC025
     FM012300 VRB04KT 2SM -SN BKN010
     FM020200 10003KT 1SM -SN BKN009=

USA.gov is the U.S. government's official web portal to all federal, state and local government web resources and services.